Time;durP1;ratioP1;P1;durP2;ratioP2;P2;SDS_P1;SDS_P2;PMS_P1;PMS_P2;Temp;Humidity;BMP_temperature;BMP_pressure;BME280_temperature;BME280_humidity;BME280_pressure;Samples;Min_cycle;Max_cycle;Signal;HPM_P1;HPM_P2
2021/12/07 00:00:54;;;;;;;31.73;18.10;;;2.40;99.90;;;;;;5066947;28;20485;-79
2021/12/07 00:03:20;;;;;;;25.83;14.82;;;2.50;99.90;;;;;;5046068;28;20037;-79
2021/12/07 00:05:48;;;;;;;29.35;16.45;;;3.20;99.90;;;;;;5058126;28;20044;-79
2021/12/07 00:08:14;;;;;;;29.55;17.00;;;2.30;99.90;;;;;;5047403;28;20404;-79
2021/12/07 00:10:41;;;;;;;25.88;15.27;;;3.30;99.90;;;;;;5029810;28;20389;-79
2021/12/07 00:13:09;;;;;;;26.80;15.82;;;2.20;99.90;;;;;;5045269;28;20120;-78
2021/12/07 00:15:36;;;;;;;28.25;15.73;;;2.20;99.90;;;;;;5025639;28;20048;-78
2021/12/07 00:18:04;;;;;;;26.15;17.00;;;2.10;99.90;;;;;;4997988;28;20052;-79
2021/12/07 00:20:31;;;;;;;29.58;14.98;;;2.30;99.90;;;;;;5052685;28;20067;-79
2021/12/07 00:23:04;;;;;;;29.83;17.77;;;2.00;99.90;;;;;;5048439;28;20717;-79
2021/12/07 00:25:30;;;;;;;29.00;16.98;;;2.00;99.90;;;;;;5026523;28;20049;-79
2021/12/07 00:27:59;;;;;;;29.02;16.00;;;2.00;99.90;;;;;;5046987;28;20037;-79
2021/12/07 00:30:31;;;;;;;22.95;12.93;;;1.90;99.90;;;;;;5078971;28;20041;-79
2021/12/07 00:33:10;;;;;;;24.88;15.63;;;1.90;99.90;;;;;;5044787;28;20044;-79
2021/12/07 00:35:37;;;;;;;26.92;14.77;;;2.50;99.90;;;;;;5029819;28;20041;-79
2021/12/07 00:38:13;;;;;;;25.40;15.55;;;1.40;99.90;;;;;;5041071;28;20481;-78
2021/12/07 00:40:41;;;;;;;26.05;15.00;;;1.90;99.90;;;;;;5044200;28;20059;-78
2021/12/07 00:43:07;;;;;;;35.55;18.42;;;2.20;99.90;;;;;;5029808;28;20035;-78
2021/12/07 00:45:35;;;;;;;32.95;17.70;;;2.10;99.90;;;;;;5049330;28;20445;-78
2021/12/07 00:48:05;;;;;;;27.92;14.85;;;2.30;99.90;;;;;;5048779;28;20056;-79
2021/12/07 00:50:33;;;;;;;32.00;17.58;;;1.80;99.90;;;;;;5047924;28;20040;-78
2021/12/07 00:53:02;;;;;;;29.45;15.50;;;2.10;99.90;;;;;;5088419;28;20028;-78
2021/12/07 00:55:31;;;;;;;27.02;14.48;;;2.10;99.90;;;;;;5060210;28;20084;-78
2021/12/07 00:57:59;;;;;;;31.67;15.73;;;2.50;99.90;;;;;;5059138;28;20045;-78
2021/12/07 01:00:27;;;;;;;34.72;19.17;;;1.70;99.90;;;;;;5077440;28;20045;-79
2021/12/07 01:02:54;;;;;;;29.95;15.20;;;1.80;99.90;;;;;;5034550;28;20052;-79
2021/12/07 01:05:27;;;;;;;26.48;14.23;;;1.90;99.90;;;;;;5046927;28;20497;-78
2021/12/07 01:08:11;;;;;;;26.48;14.77;;;2.00;99.90;;;;;;5028261;28;20065;-79
2021/12/07 01:27:07;;;;;;;32.33;17.38;;;1.30;99.90;;;;;;5043223;28;20036;-79
2021/12/07 01:29:33;;;;;;;37.33;19.00;;;1.20;99.90;;;;;;5063971;28;20047;-80
2021/12/07 01:35:10;;;;;;;33.53;17.58;;;1.70;99.90;;;;;;5033357;28;20554;-80
2021/12/07 01:51:02;;;;;;;;;;;1.20;99.90;;;;;;5044902;28;20069;-79
2021/12/07 02:01:39;;;;;;;27.95;14.23;;;1.40;99.90;;;;;;5031360;28;20063;-79
2021/12/07 02:04:05;;;;;;;32.67;17.77;;;1.30;99.90;;;;;;5048055;28;20037;-80
2021/12/07 02:06:31;;;;;;;29.33;15.73;;;1.20;99.90;;;;;;5048254;28;20053;-79
2021/12/07 02:08:56;;;;;;;29.73;15.93;;;1.70;99.90;;;;;;5052102;28;20044;-79
2021/12/07 02:11:22;;;;;;;26.75;15.38;;;2.30;99.90;;;;;;5020290;28;20071;-79
2021/12/07 02:16:18;;;;;;;31.00;15.73;;;1.30;99.90;;;;;;5052737;28;20040;-79
2021/12/07 02:18:44;;;;;;;32.95;17.35;;;1.90;99.90;;;;;;5033848;28;20040;-79
2021/12/07 02:21:24;;;;;;;25.25;11.88;;;1.20;99.90;;;;;;5080098;28;20037;-79
2021/12/07 02:23:51;;;;;;;27.38;15.07;;;1.20;99.90;;;;;;5038169;28;20067;-79
2021/12/07 02:26:17;;;;;;;32.65;16.52;;;1.30;99.90;;;;;;5055487;28;20476;-79
2021/12/07 02:28:44;;;;;;;26.35;13.98;;;1.70;99.90;;;;;;5057160;28;20064;-79
2021/12/07 02:31:10;;;;;;;25.92;13.00;;;2.30;99.90;;;;;;5032312;28;20814;-80
2021/12/07 02:33:36;;;;;;;24.92;15.02;;;1.20;99.90;;;;;;5016603;28;20044;-80
2021/12/07 02:36:03;;;;;;;23.20;12.57;;;1.30;99.90;;;;;;5037074;28;20037;-79
2021/12/07 02:38:29;;;;;;;21.98;13.10;;;1.20;99.90;;;;;;5050563;28;20043;-80
2021/12/07 02:40:55;;;;;;;21.50;13.63;;;1.20;99.90;;;;;;5016923;28;20409;-79
2021/12/07 02:43:21;;;;;;;27.48;15.32;;;1.20;99.90;;;;;;5007257;28;20078;-79
2021/12/07 02:45:47;;;;;;;21.55;12.80;;;1.20;99.90;;;;;;5045532;28;20029;-79
2021/12/07 02:48:13;;;;;;;24.13;13.18;;;1.30;99.90;;;;;;5016917;28;20091;-79
2021/12/07 02:50:39;;;;;;;21.90;13.38;;;1.80;99.90;;;;;;5030809;28;20044;-79
2021/12/07 02:53:04;;;;;;;22.10;12.30;;;1.30;99.90;;;;;;5045082;28;20056;-79
2021/12/07 02:55:34;;;;;;;22.15;13.43;;;2.10;99.90;;;;;;5037205;28;20436;-79
2021/12/07 02:58:00;;;;;;;19.02;12.10;;;1.30;99.90;;;;;;5056341;28;21787;-79
2021/12/07 03:00:34;;;;;;;22.42;13.63;;;1.90;99.90;;;;;;5051528;28;20123;-79
2021/12/07 03:03:06;;;;;;;22.30;13.85;;;2.10;99.90;;;;;;5061788;28;20041;-79
2021/12/07 03:27:23;;;;;;;25.13;14.23;;;2.10;99.90;;;;;;5067129;28;20079;-78
2021/12/07 03:29:49;;;;;;;26.92;15.55;;;1.90;99.90;;;;;;5040554;28;20500;-78
2021/12/07 03:32:15;;;;;;;23.25;13.85;;;1.40;99.90;;;;;;5019390;28;20476;-78
2021/12/07 03:34:41;;;;;;;26.35;16.60;;;1.30;99.90;;;;;;5045089;28;20041;-78
2021/12/07 03:37:07;;;;;;;20.23;11.95;;;1.40;99.90;;;;;;5070395;28;20036;-78
2021/12/07 03:39:32;;;;;;;24.08;14.93;;;1.50;99.90;;;;;;5078679;28;20047;-78
2021/12/07 03:41:58;;;;;;;21.70;12.93;;;1.10;99.90;;;;;;5054653;28;20119;-78
2021/12/07 03:44:24;;;;;;;26.48;16.42;;;1.20;99.90;;;;;;5052507;28;20043;-78
2021/12/07 03:46:49;;;;;;;23.27;13.63;;;1.30;99.90;;;;;;5036137;28;20040;-78
2021/12/07 03:49:15;;;;;;;26.92;15.23;;;1.10;99.90;;;;;;5021205;28;20123;-78
2021/12/07 03:51:41;;;;;;;28.50;17.23;;;2.00;99.90;;;;;;5014411;28;20033;-78
2021/12/07 03:54:07;;;;;;;25.25;15.48;;;1.10;99.90;;;;;;5028737;28;20052;-79
2021/12/07 03:56:33;;;;;;;29.95;17.30;;;2.40;99.90;;;;;;5035302;28;20132;-78
2021/12/07 03:58:59;;;;;;;28.08;16.48;;;2.70;99.90;;;;;;5068278;28;20041;-78
2021/12/07 04:01:25;;;;;;;31.33;17.85;;;1.20;99.90;;;;;;5037413;28;20041;-78
2021/12/07 04:03:52;;;;;;;28.40;16.20;;;1.80;99.90;;;;;;5016964;28;20033;-78
2021/12/07 04:06:20;;;;;;;28.50;16.23;;;2.50;99.90;;;;;;5049714;28;20052;-79
2021/12/07 04:08:46;;;;;;;25.92;15.23;;;1.30;99.90;;;;;;5029942;28;22409;-79
2021/12/07 04:11:13;;;;;;;25.20;13.27;;;1.20;99.90;;;;;;5061037;28;20119;-79
2021/12/07 04:13:40;;;;;;;27.92;15.75;;;1.40;99.90;;;;;;5051925;28;20072;-79
2021/12/07 04:16:07;;;;;;;26.88;16.23;;;1.40;99.90;;;;;;5003067;28;20520;-78
2021/12/07 04:18:36;;;;;;;28.95;15.40;;;1.10;99.90;;;;;;5022496;28;20055;-78
2021/12/07 04:21:03;;;;;;;24.75;14.63;;;1.20;99.90;;;;;;5008745;28;20041;-78
2021/12/07 04:23:34;;;;;;;23.77;14.15;;;1.10;99.90;;;;;;5011440;28;20049;-79
2021/12/07 04:26:01;;;;;;;30.53;17.80;;;1.90;99.90;;;;;;5022359;28;20052;-79
2021/12/07 04:28:27;;;;;;;26.02;15.18;;;1.10;99.90;;;;;;4997665;28;20036;-79
2021/12/07 04:30:53;;;;;;;30.90;16.90;;;1.20;99.90;;;;;;4998103;28;20107;-79
2021/12/07 04:33:18;;;;;;;29.88;16.75;;;2.20;99.90;;;;;;5034314;28;20060;-78
2021/12/07 04:35:47;;;;;;;30.90;16.55;;;1.00;99.90;;;;;;4999946;28;20044;-79
2021/12/07 04:38:14;;;;;;;33.30;17.58;;;2.10;99.90;;;;;;5052355;28;20037;-79
2021/12/07 04:40:41;;;;;;;25.17;13.98;;;1.60;99.90;;;;;;5018984;28;20551;-79
2021/12/07 04:43:07;;;;;;;29.00;16.17;;;1.10;99.90;;;;;;5029519;28;20175;-78
2021/12/07 04:58:50;;;;;;;30.73;17.08;;;1.10;99.90;;;;;;5073393;28;20413;-79
2021/12/07 05:01:16;;;;;;;30.98;14.48;;;0.90;99.90;;;;;;5011107;28;20047;-79
2021/12/07 05:03:43;;;;;;;27.70;15.50;;;1.00;99.90;;;;;;5032024;28;20052;-79
2021/12/07 05:06:11;;;;;;;30.52;16.42;;;1.00;99.90;;;;;;5054147;28;20055;-79
2021/12/07 05:08:43;;;;;;;31.70;16.15;;;1.10;99.90;;;;;;5031950;28;20036;-79
2021/12/07 05:11:28;;;;;;;29.90;14.98;;;1.20;99.90;;;;;;5041571;28;20045;-78
2021/12/07 05:14:11;;;;;;;25.75;14.45;;;1.90;99.90;;;;;;5041815;28;20042;-78
2021/12/07 05:24:50;;;;;;;23.70;13.95;;;1.40;99.90;;;;;;5007930;28;20045;-78
2021/12/07 05:38:16;;;;;;;27.83;14.93;;;1.30;99.90;;;;;;5039675;28;20036;-79
2021/12/07 05:40:42;;;;;;;23.63;14.75;;;1.20;99.90;;;;;;5045332;28;20045;-79
2021/12/07 05:43:08;;;;;;;31.00;15.63;;;2.00;99.90;;;;;;5020438;28;20532;-78
2021/12/07 05:45:37;;;;;;;27.45;14.43;;;1.70;99.90;;;;;;5062963;28;20051;-78
2021/12/07 05:48:04;;;;;;;22.33;11.90;;;1.10;99.90;;;;;;5021705;28;20137;-78
2021/12/07 05:50:32;;;;;;;22.70;12.48;;;1.40;99.90;;;;;;5039417;28;20048;-78
2021/12/07 05:52:59;;;;;;;26.52;12.52;;;1.50;99.90;;;;;;5037089;28;20037;-80
2021/12/07 05:55:26;;;;;;;26.50;13.15;;;1.90;99.90;;;;;;5013860;28;22153;-80
2021/12/07 05:57:53;;;;;;;25.65;13.07;;;1.50;99.90;;;;;;5024881;28;20033;-78
2021/12/07 06:00:24;;;;;;;25.02;12.02;;;1.00;99.90;;;;;;5021835;28;20033;-78
2021/12/07 06:02:54;;;;;;;28.73;12.40;;;1.00;99.90;;;;;;5055199;28;20032;-78
2021/12/07 06:05:20;;;;;;;26.05;10.73;;;2.00;99.90;;;;;;5017675;28;20554;-78
2021/12/07 06:07:46;;;;;;;19.02;10.70;;;1.10;99.90;;;;;;5020036;28;20041;-78
2021/12/07 06:10:12;;;;;;;19.63;11.48;;;1.10;99.90;;;;;;5019943;28;20044;-78
2021/12/07 06:12:38;;;;;;;22.38;11.70;;;1.20;99.90;;;;;;5050486;28;20440;-78
2021/12/07 06:15:04;;;;;;;21.73;12.02;;;2.40;99.90;;;;;;4997377;28;20108;-78
2021/12/07 06:17:30;;;;;;;18.67;10.90;;;1.20;99.90;;;;;;5015580;28;20049;-78
2021/12/07 06:19:55;;;;;;;24.92;13.18;;;1.20;99.90;;;;;;5031147;28;20049;-78
2021/12/07 06:22:21;;;;;;;25.50;13.10;;;1.20;99.90;;;;;;5042872;28;20040;-78
2021/12/07 06:24:47;;;;;;;21.23;11.73;;;1.30;99.90;;;;;;5060404;28;20036;-78
2021/12/07 06:27:13;;;;;;;22.75;10.77;;;1.20;99.90;;;;;;5034491;28;20041;-78
2021/12/07 06:29:39;;;;;;;20.05;11.63;;;1.40;99.90;;;;;;5003203;28;20064;-77
2021/12/07 06:32:06;;;;;;;23.52;11.80;;;1.30;99.90;;;;;;5013741;28;20029;-78
2021/12/07 06:34:32;;;;;;;23.90;12.50;;;1.50;99.90;;;;;;5014992;28;20049;-78
2021/12/07 06:37:00;;;;;;;22.05;10.77;;;1.50;99.90;;;;;;5024440;28;20415;-78
2021/12/07 06:39:25;;;;;;;21.27;10.43;;;1.50;99.90;;;;;;5021878;28;20044;-78
2021/12/07 06:41:51;;;;;;;20.45;10.98;;;1.40;99.90;;;;;;5072482;28;20033;-78
2021/12/07 06:44:18;;;;;;;16.42;8.73;;;1.80;99.90;;;;;;5030819;28;20048;-78
2021/12/07 06:46:47;;;;;;;24.05;11.55;;;1.50;99.90;;;;;;5037396;28;20064;-78
2021/12/07 06:49:17;;;;;;;20.40;9.63;;;1.30;99.90;;;;;;5026142;28;20060;-78
2021/12/07 06:51:43;;;;;;;21.80;10.55;;;1.40;99.90;;;;;;5011189;28;20042;-76
2021/12/07 06:54:09;;;;;;;23.65;10.35;;;2.40;99.90;;;;;;5043599;28;20033;-77
2021/12/07 06:56:35;;;;;;;23.77;10.77;;;1.50;99.90;;;;;;5013314;28;20038;-76
2021/12/07 06:59:01;;;;;;;19.38;10.25;;;1.60;99.90;;;;;;5029869;28;20493;-76
2021/12/07 07:01:27;;;;;;;24.80;10.98;;;1.50;99.90;;;;;;5032617;28;20034;-76
2021/12/07 07:03:52;;;;;;;21.58;11.70;;;1.40;99.90;;;;;;5046334;28;20041;-76
2021/12/07 07:06:18;;;;;;;24.10;11.18;;;2.10;99.90;;;;;;5030821;28;20537;-76
2021/12/07 07:08:44;;;;;;;23.48;10.80;;;1.40;99.90;;;;;;5027510;28;20063;-76
2021/12/07 07:11:10;;;;;;;20.05;10.65;;;2.70;99.90;;;;;;5009120;28;20048;-76
2021/12/07 07:13:36;;;;;;;25.10;11.80;;;1.50;99.90;;;;;;5028399;28;20168;-75
2021/12/07 07:16:04;;;;;;;28.38;11.68;;;1.40;99.90;;;;;;4992665;28;20061;-75
2021/12/07 07:18:29;;;;;;;24.23;11.18;;;1.30;99.90;;;;;;5019656;28;20125;-76
2021/12/07 07:20:56;;;;;;;25.65;11.82;;;2.00;99.90;;;;;;5002035;28;20156;-76
2021/12/07 07:23:25;;;;;;;23.88;11.05;;;1.20;99.90;;;;;;5032502;28;20058;-78
2021/12/07 07:25:55;;;;;;;29.63;12.40;;;1.10;99.90;;;;;;5009507;28;20060;-78
2021/12/07 07:28:25;;;;;;;24.67;12.05;;;1.20;99.90;;;;;;5036295;28;20115;-77
2021/12/07 07:30:51;;;;;;;23.85;11.65;;;1.20;99.90;;;;;;5035626;28;20069;-77
2021/12/07 07:33:17;;;;;;;24.48;11.38;;;1.10;99.90;;;;;;5036371;28;20037;-77
2021/12/07 07:35:43;;;;;;;21.42;10.13;;;1.30;99.90;;;;;;5042330;28;20037;-77
2021/12/07 07:38:09;;;;;;;30.15;12.95;;;1.20;99.90;;;;;;5050118;28;20029;-77
2021/12/07 07:40:35;;;;;;;22.10;11.00;;;1.10;99.90;;;;;;5041066;28;20083;-77
2021/12/07 07:43:00;;;;;;;20.92;10.52;;;1.20;99.90;;;;;;5008194;28;20136;-77
2021/12/07 07:45:26;;;;;;;24.30;11.50;;;1.50;99.90;;;;;;5011701;28;20354;-77
2021/12/07 07:47:52;;;;;;;28.95;12.48;;;1.20;99.90;;;;;;5009211;28;20056;-75
2021/12/07 07:50:18;;;;;;;25.00;12.30;;;1.10;99.90;;;;;;5037179;28;20076;-78
2021/12/07 07:52:44;;;;;;;29.80;12.73;;;1.90;99.90;;;;;;5036461;28;20507;-78
2021/12/07 07:55:12;;;;;;;33.85;12.80;;;1.90;99.90;;;;;;5057803;28;20036;-77
2021/12/07 07:57:38;;;;;;;28.10;11.63;;;1.10;99.90;;;;;;5071039;28;20040;-77
2021/12/07 08:00:08;;;;;;;25.70;12.52;;;1.20;99.90;;;;;;5031107;28;20043;-77
2021/12/07 08:02:34;;;;;;;27.55;12.93;;;1.30;99.90;;;;;;5042936;28;20048;-78
2021/12/07 08:05:00;;;;;;;22.50;11.38;;;1.20;99.90;;;;;;5041160;28;20036;-78
2021/12/07 08:07:26;;;;;;;21.65;10.00;;;1.10;99.90;;;;;;5032872;28;20045;-78
2021/12/07 08:09:51;;;;;;;23.65;11.13;;;1.30;99.90;;;;;;5031003;28;20051;-77
2021/12/07 08:12:17;;;;;;;22.58;11.60;;;1.20;99.90;;;;;;5032325;28;20036;-77
2021/12/07 08:14:43;;;;;;;23.45;11.77;;;1.40;99.90;;;;;;5062410;28;20041;-77
2021/12/07 08:17:09;;;;;;;25.02;11.80;;;1.30;99.90;;;;;;5049419;28;20033;-77
2021/12/07 08:19:36;;;;;;;23.95;11.13;;;1.10;99.90;;;;;;5086833;28;20044;-77
2021/12/07 08:22:03;;;;;;;22.45;12.20;;;1.30;99.90;;;;;;5058640;28;20037;-75
2021/12/07 08:24:28;;;;;;;24.40;11.02;;;1.40;99.90;;;;;;5065119;28;20083;-77
2021/12/07 08:26:54;;;;;;;23.00;10.88;;;1.40;99.90;;;;;;5038155;28;20085;-77
2021/12/07 08:29:20;;;;;;;27.50;13.38;;;1.20;99.90;;;;;;5049799;28;20378;-78
2021/12/07 08:31:46;;;;;;;27.75;12.65;;;1.40;99.90;;;;;;5066448;28;20033;-77
2021/12/07 08:34:12;;;;;;;30.40;12.75;;;1.30;99.90;;;;;;5037566;28;20051;-77
2021/12/07 08:36:37;;;;;;;20.48;10.43;;;1.50;99.90;;;;;;5032312;28;20135;-77
2021/12/07 08:39:07;;;;;;;24.63;12.10;;;1.60;99.90;;;;;;5031274;28;20051;-77
2021/12/07 08:41:33;;;;;;;34.30;13.98;;;;;;;;;;5052791;28;20078;-77
2021/12/07 08:43:59;;;;;;;32.38;12.18;;;;;;;;;;5045411;28;20039;-76
2021/12/07 08:46:25;;;;;;;31.75;13.63;;;;;;;;;;5030928;28;20397;-76
2021/12/07 08:48:51;;;;;;;26.77;11.30;;;;;;;;;;5021868;28;20131;-76
2021/12/07 08:51:17;;;;;;;26.20;12.35;;;1.70;99.90;;;;;;5023151;28;20127;-78
2021/12/07 08:53:57;;;;;;;27.65;12.75;;;1.80;99.90;;;;;;5088220;28;20073;-75
2021/12/07 09:01:52;;;;;;;21.63;11.73;;;1.90;99.90;;;;;;5063659;28;20044;-78
2021/12/07 09:04:20;;;;;;;27.70;12.10;;;2.00;99.90;;;;;;5017694;28;20072;-78
2021/12/07 09:06:47;;;;;;;25.23;12.05;;;2.00;99.90;;;;;;5031913;28;20036;-77
2021/12/07 09:09:13;;;;;;;21.55;10.73;;;2.00;99.90;;;;;;5052551;28;20098;-75
2021/12/07 09:11:43;;;;;;;17.65;10.20;;;2.60;99.90;;;;;;5030897;28;20657;-75
2021/12/07 09:14:14;;;;;;;23.10;10.25;;;2.20;99.90;;;;;;5047075;28;20044;-77
2021/12/07 09:16:41;;;;;;;22.08;9.90;;;2.90;99.90;;;;;;5068789;28;20039;-77
2021/12/07 09:19:07;;;;;;;16.15;8.00;;;2.20;99.90;;;;;;5032137;28;20032;-77
2021/12/07 09:21:33;;;;;;;25.98;10.02;;;2.30;99.90;;;;;;5046303;28;20028;-77
2021/12/07 09:23:59;;;;;;;19.70;9.82;;;2.40;99.90;;;;;;5034844;28;20040;-77
2021/12/07 09:26:25;;;;;;;23.40;9.77;;;3.00;99.90;;;;;;5032944;28;20097;-77
2021/12/07 09:28:51;;;;;;;19.63;9.05;;;2.50;99.90;;;;;;5047967;28;20064;-76
2021/12/07 09:31:17;;;;;;;16.35;7.05;;;2.30;99.90;;;;;;5049712;28;20504;-76
2021/12/07 09:33:43;;;;;;;17.73;8.32;;;2.60;99.90;;;;;;5015752;28;20043;-76
2021/12/07 09:36:12;;;;;;;20.80;10.10;;;2.30;99.90;;;;;;5014042;28;20119;-77
2021/12/07 09:38:39;;;;;;;18.15;8.00;;;2.70;99.90;;;;;;5053547;28;20040;-76
2021/12/07 09:41:07;;;;;;;19.58;8.70;;;2.70;99.90;;;;;;5082076;28;20040;-76
2021/12/07 09:43:33;;;;;;;19.15;9.10;;;2.80;99.90;;;;;;5064386;28;20045;-75
2021/12/07 09:45:58;;;;;;;17.10;8.68;;;2.80;99.90;;;;;;5055639;28;20045;-76
2021/12/07 09:48:25;;;;;;;20.63;9.45;;;2.90;99.90;;;;;;5088138;28;20147;-75
2021/12/07 09:50:53;;;;;;;20.88;8.05;;;2.90;99.90;;;;;;5016792;28;20079;-75
2021/12/07 09:53:22;;;;;;;21.67;7.53;;;3.00;99.90;;;;;;5064757;28;20044;-75
2021/12/07 09:55:48;;;;;;;16.95;7.60;;;3.00;99.90;;;;;;5060769;28;20068;-75
2021/12/07 09:58:16;;;;;;;17.48;7.40;;;3.10;99.90;;;;;;5079436;28;20057;-75
2021/12/07 10:00:44;;;;;;;13.65;7.00;;;3.10;99.90;;;;;;5048603;28;20044;-77
2021/12/07 10:03:10;;;;;;;21.17;7.88;;;3.90;99.90;;;;;;5068097;28;20036;-77
2021/12/07 10:05:36;;;;;;;18.13;7.00;;;4.10;99.90;;;;;;5009317;28;20031;-77
2021/12/07 10:08:04;;;;;;;20.08;7.40;;;3.20;99.90;;;;;;5038914;28;20041;-77
2021/12/07 10:10:33;;;;;;;13.95;7.40;;;3.20;99.90;;;;;;5041360;28;20078;-77
2021/12/07 10:12:59;;;;;;;16.58;6.82;;;3.30;99.90;;;;;;5059395;28;20052;-77
2021/12/07 10:15:26;;;;;;;20.25;6.93;;;3.30;99.90;;;;;;5042997;28;20116;-77
2021/12/07 10:18:13;;;;;;;12.25;6.35;;;3.30;99.90;;;;;;5053046;28;20507;-77
2021/12/07 10:20:44;;;;;;;15.75;7.25;;;3.50;99.90;;;;;;5070158;28;20408;-77
2021/12/07 10:23:16;;;;;;;13.32;8.27;;;3.50;99.90;;;;;;5054944;28;20052;-76
2021/12/07 10:25:55;;;;;;;22.65;8.15;;;3.60;99.90;;;;;;5088051;28;20044;-78
2021/12/07 10:28:26;;;;;;;25.90;9.00;;;3.60;99.90;;;;;;5056580;28;20063;-77
2021/12/07 10:31:06;;;;;;;16.77;7.68;;;3.60;99.90;;;;;;5053021;28;20044;-77
2021/12/07 10:33:41;;;;;;;21.27;9.38;;;3.60;99.90;;;;;;5089050;28;20071;-77
2021/12/07 10:36:10;;;;;;;16.23;7.13;;;4.00;99.90;;;;;;5081256;28;20037;-77
2021/12/07 10:38:37;;;;;;;16.10;6.63;;;3.80;99.90;;;;;;5074381;28;20076;-77
2021/12/07 10:41:07;;;;;;;17.85;7.00;;;3.80;99.90;;;;;;5058771;28;20040;-77
2021/12/07 10:44:10;;;;;;;16.13;6.47;;;3.70;99.90;;;;;;5068025;28;20068;-77
2021/12/07 10:46:38;;;;;;;15.25;6.45;;;;;;;;;;4979417;28;20109;-77
2021/12/07 10:49:17;;;;;;;18.17;6.53;;;3.90;99.90;;;;;;5027009;28;20033;-77
2021/12/07 10:52:13;;;;;;;21.15;7.78;;;3.90;99.90;;;;;;5063099;28;20040;-77
2021/12/07 10:55:12;;;;;;;17.17;6.72;;;4.00;99.90;;;;;;5067052;28;20107;-77
2021/12/07 10:57:50;;;;;;;14.55;6.35;;;4.00;99.90;;;;;;5053834;28;20091;-77
2021/12/07 11:00:20;;;;;;;15.82;6.20;;;4.10;99.90;;;;;;5053816;28;20553;-77
2021/12/07 11:02:54;;;;;;;13.48;6.63;;;4.10;99.90;;;;;;5070763;28;20033;-77
2021/12/07 11:05:38;;;;;;;14.13;6.45;;;4.30;99.90;;;;;;5067012;28;20048;-76
2021/12/07 11:08:08;;;;;;;16.50;6.88;;;4.20;99.90;;;;;;5053140;28;20052;-76
2021/12/07 11:10:37;;;;;;;20.50;6.63;;;4.30;99.90;;;;;;5075553;28;20139;-77
2021/12/07 11:13:17;;;;;;;10.75;5.78;;;4.30;99.90;;;;;;5058312;28;20036;-75
2021/12/07 11:15:50;;;;;;;21.90;6.05;;;4.40;99.90;;;;;;5073047;28;20148;-77
2021/12/07 11:18:27;;;;;;;16.35;5.90;;;4.50;99.90;;;;;;5069669;28;20064;-77
2021/12/07 11:20:56;;;;;;;13.02;5.88;;;4.50;99.90;;;;;;5050511;28;20118;-77
2021/12/07 11:23:26;;;;;;;14.88;6.35;;;;;;;;;;5089673;28;20137;-77
2021/12/07 11:29:40;;;;;;;13.73;6.50;;;;;;;;;;5050993;28;20039;-77
2021/12/07 11:31:35;;;;;;;14.27;5.20;;;;;;;;;;5091409;28;20044;-77
2021/12/07 11:34:09;;;;;;;13.98;4.93;;;5.30;99.90;;;;;;5054714;28;20484;-77
2021/12/07 11:36:39;;;;;;;12.85;5.20;;;5.30;99.90;;;;;;5063602;28;20032;-77
2021/12/07 11:39:30;;;;;;;16.13;5.32;;;6.10;99.90;;;;;;5054782;28;20063;-76
2021/12/07 11:42:04;;;;;;;10.23;4.90;;;5.40;99.90;;;;;;5079498;28;20044;-76
2021/12/07 11:44:31;;;;;;;10.60;4.30;;;;;;;;;;5088394;28;20431;-75
2021/12/07 11:46:59;;;;;;;14.48;5.03;;;5.60;99.90;;;;;;5051337;28;20071;-76
2021/12/07 11:49:26;;;;;;;14.77;5.20;;;;;;;;;;5037040;28;20056;-76
2021/12/07 11:51:55;;;;;;;17.05;5.93;;;6.30;99.90;;;;;;5038484;28;20040;-77
2021/12/07 11:54:29;;;;;;;14.88;5.32;;;6.60;99.90;;;;;;5048824;28;20118;-76
2021/12/07 11:56:56;;;;;;;16.38;4.78;;;6.60;99.90;;;;;;5039106;28;20054;-76
2021/12/07 11:59:22;;;;;;;15.80;5.72;;;6.60;99.90;;;;;;5053776;28;20439;-77
2021/12/07 12:01:49;;;;;;;11.73;4.05;;;6.60;99.90;;;;;;5072802;28;20041;-77
2021/12/07 12:04:17;;;;;;;12.10;4.00;;;6.70;99.90;;;;;;5067981;28;20436;-77
2021/12/07 12:06:47;;;;;;;11.98;4.15;;;6.80;99.90;;;;;;5084776;28;20044;-77
2021/12/07 12:09:14;;;;;;;12.82;4.05;;;6.70;99.90;;;;;;5053261;28;20044;-77
2021/12/07 12:11:51;;;;;;;16.40;5.72;;;6.50;99.90;;;;;;5083974;28;20397;-77
2021/12/07 12:14:43;;;;;;;18.42;5.55;;;6.30;99.90;;;;;;5083484;28;20083;-77
2021/12/07 12:17:31;;;;;;;14.75;5.10;;;6.20;99.90;;;;;;5038018;28;20028;-77
2021/12/07 12:20:30;;;;;;;12.75;4.93;;;6.10;99.90;;;;;;5049882;28;20032;-77
2021/12/07 12:23:06;;;;;;;9.77;4.82;;;6.00;99.90;;;;;;5077887;28;20028;-79
2021/12/07 12:25:33;;;;;;;12.48;4.32;;;5.90;99.90;;;;;;5048537;28;20327;-78
2021/12/07 12:27:58;;;;;;;11.73;4.60;;;5.80;99.90;;;;;;5071263;28;20036;-78
2021/12/07 12:30:34;;;;;;;16.33;5.07;;;6.90;99.90;;;;;;5038999;28;20473;-78
2021/12/07 12:33:09;;;;;;;14.10;4.97;;;5.90;99.90;;;;;;5036590;28;20036;-77
2021/12/07 12:35:51;;;;;;;10.10;4.57;;;6.00;99.90;;;;;;5053490;28;20044;-77
2021/12/07 12:38:25;;;;;;;17.02;4.68;;;5.90;99.90;;;;;;5049153;28;20127;-76
2021/12/07 12:41:01;;;;;;;11.82;4.15;;;6.00;99.90;;;;;;5052250;28;20043;-76
2021/12/07 12:43:33;;;;;;;12.88;4.80;;;6.00;99.90;;;;;;5094205;28;20064;-76
2021/12/07 12:46:03;;;;;;;12.88;4.70;;;6.00;99.90;;;;;;5069097;28;20037;-75
2021/12/07 12:48:28;;;;;;;17.20;5.10;;;6.00;99.90;;;;;;5050488;28;20059;-75
2021/12/07 12:50:56;;;;;;;13.07;4.70;;;6.20;99.90;;;;;;5088325;28;20044;-75
2021/12/07 12:53:25;;;;;;;13.95;4.50;;;5.90;99.90;;;;;;5082213;28;20048;-75
2021/12/07 12:55:56;;;;;;;9.95;4.43;;;5.80;99.90;;;;;;5048018;28;20487;-74
2021/12/07 12:58:29;;;;;;;12.00;4.68;;;5.80;99.90;;;;;;5049526;28;20564;-74
2021/12/07 13:01:20;;;;;;;12.63;4.72;;;5.80;99.90;;;;;;5071081;28;20432;-74
2021/12/07 13:03:51;;;;;;;13.75;5.65;;;5.80;99.90;;;;;;5066268;28;20040;-73
2021/12/07 13:06:21;;;;;;;12.20;5.05;;;5.80;99.90;;;;;;5049909;28;20048;-73
2021/12/07 13:08:56;;;;;;;14.50;5.03;;;5.80;99.90;;;;;;5045701;28;20044;-75
2021/12/07 13:11:40;;;;;;;12.65;5.80;;;6.10;99.90;;;;;;5082677;28;20121;-76
2021/12/07 13:14:25;;;;;;;11.57;5.10;;;5.70;99.90;;;;;;5061276;28;20044;-73
2021/12/07 13:17:15;;;;;;;15.32;5.00;;;5.60;99.90;;;;;;5044539;28;20059;-75
2021/12/07 13:20:09;;;;;;;14.43;5.15;;;5.60;99.90;;;;;;5065300;28;20032;-75
2021/12/07 13:22:46;;;;;;;16.02;5.03;;;5.60;99.90;;;;;;5083621;28;20462;-75
2021/12/07 13:25:18;;;;;;;16.38;4.82;;;5.60;99.90;;;;;;5064695;28;20123;-75
2021/12/07 13:28:07;;;;;;;15.88;5.00;;;5.60;99.90;;;;;;5041629;28;20049;-75
2021/12/07 13:30:51;;;;;;;13.40;5.13;;;5.50;99.90;;;;;;5039982;28;20127;-78
2021/12/07 13:33:19;;;;;;;16.48;5.63;;;5.50;99.90;;;;;;5049942;28;20448;-76
2021/12/07 13:35:46;;;;;;;10.75;5.72;;;5.50;99.90;;;;;;5082506;28;20484;-76
2021/12/07 13:38:22;;;;;;;13.10;4.97;;;5.50;99.90;;;;;;5051661;28;20041;-76
2021/12/07 13:40:49;;;;;;;16.02;5.72;;;5.50;99.90;;;;;;5046462;28;20503;-77
2021/12/07 13:43:34;;;;;;;11.93;5.57;;;6.20;99.90;;;;;;5010637;28;20040;-77
2021/12/07 13:46:12;;;;;;;12.05;4.25;;;5.40;99.90;;;;;;5050749;28;20505;-76
2021/12/07 13:48:39;;;;;;;15.82;4.72;;;5.30;99.90;;;;;;5058625;28;20089;-76
2021/12/07 13:51:06;;;;;;;10.25;5.20;;;5.80;99.90;;;;;;5051499;28;20087;-77
2021/12/07 13:53:32;;;;;;;12.82;5.03;;;5.30;99.90;;;;;;5078063;28;20045;-76
2021/12/07 13:55:58;;;;;;;14.95;5.80;;;5.20;99.90;;;;;;5050979;28;20067;-76
2021/12/07 13:58:25;;;;;;;13.98;6.32;;;5.20;99.90;;;;;;5031854;28;20436;-76
2021/12/07 14:00:51;;;;;;;23.05;7.30;;;5.10;99.90;;;;;;5074079;28;20037;-76
2021/12/07 14:03:19;;;;;;;15.70;7.70;;;5.10;99.90;;;;;;5040749;28;20029;-77
2021/12/07 14:05:46;;;;;;;14.23;6.25;;;5.00;99.90;;;;;;5047323;28;20040;-77
2021/12/07 14:08:14;;;;;;;14.52;7.32;;;5.00;99.90;;;;;;5038773;28;20131;-77
2021/12/07 14:10:44;;;;;;;16.27;6.60;;;4.90;99.90;;;;;;5003452;28;20041;-77
2021/12/07 14:13:11;;;;;;;16.33;6.80;;;5.10;99.90;;;;;;5027024;28;20048;-77
2021/12/07 14:15:39;;;;;;;15.05;6.97;;;4.80;99.90;;;;;;5023848;28;20095;-78
2021/12/07 14:18:11;;;;;;;13.05;6.13;;;4.90;99.90;;;;;;5028016;28;20042;-78
2021/12/07 14:20:49;;;;;;;22.63;11.48;;;4.30;99.90;;;;;;5013079;28;20048;-78
2021/12/07 14:23:24;;;;;;;13.68;6.40;;;4.60;99.90;;;;;;5009703;28;20060;-78
2021/12/07 14:25:56;;;;;;;19.75;7.55;;;5.40;99.90;;;;;;5029226;28;20080;-78
2021/12/07 14:28:26;;;;;;;17.38;7.68;;;4.60;99.90;;;;;;5044152;28;20045;-78
2021/12/07 14:30:56;;;;;;;16.85;7.85;;;4.60;99.90;;;;;;5050188;28;20055;-78
2021/12/07 14:33:22;;;;;;;20.08;7.82;;;4.50;99.90;;;;;;5040565;28;20036;-77
2021/12/07 14:35:48;;;;;;;28.95;9.70;;;4.50;99.90;;;;;;5027222;28;20068;-77
2021/12/07 14:38:13;;;;;;;17.20;8.82;;;4.40;99.90;;;;;;5022664;28;20079;-77
2021/12/07 14:40:43;;;;;;;22.83;8.93;;;4.40;99.90;;;;;;5047983;28;20544;-78